Time;durP1;ratioP1;P1;durP2;ratioP2;P2;SDS_P1;SDS_P2;PMS_P1;PMS_P2;Temp;Humidity;BMP_temperature;BMP_pressure;BME280_temperature;BME280_humidity;BME280_pressure;Samples;Min_cycle;Max_cycle;Signal;HPM_P1;HPM_P2
2023/10/23 00:02:24;;;;;;;11.30;8.57;;;20.70;52.40;;;;;;5091774;28;20111;-52
2023/10/23 00:04:50;;;;;;;12.38;8.60;;;20.70;52.50;;;;;;5083944;28;20024;-51
2023/10/23 00:07:16;;;;;;;10.88;7.75;;;20.70;52.50;;;;;;5062980;28;20043;-50
2023/10/23 00:09:42;;;;;;;11.43;8.05;;;20.70;52.50;;;;;;5086564;28;20081;-51
2023/10/23 00:12:09;;;;;;;11.60;8.07;;;20.70;52.50;;;;;;5068903;28;20028;-51
2023/10/23 00:14:35;;;;;;;11.95;8.02;;;20.70;52.50;;;;;;5080891;28;20053;-52
2023/10/23 00:17:01;;;;;;;11.20;8.18;;;20.60;52.40;;;;;;5066028;28;20112;-51
2023/10/23 00:19:27;;;;;;;7.90;6.70;;;20.70;52.40;;;;;;5072770;28;20167;-48
2023/10/23 00:21:53;;;;;;;9.55;6.75;;;20.60;52.30;;;;;;5065027;28;20066;-52
2023/10/23 00:24:19;;;;;;;10.05;7.38;;;20.60;52.30;;;;;;5071760;28;20041;-51
2023/10/23 00:26:45;;;;;;;10.68;7.10;;;20.60;52.30;;;;;;5070408;28;20041;-51
2023/10/23 00:29:11;;;;;;;10.60;7.00;;;20.60;52.30;;;;;;5055940;28;20020;-47
2023/10/23 00:31:37;;;;;;;9.73;7.22;;;20.60;52.20;;;;;;5090758;28;20032;-49
2023/10/23 00:34:02;;;;;;;9.05;6.45;;;20.60;52.20;;;;;;5069720;28;20505;-53
2023/10/23 00:36:28;;;;;;;9.43;6.40;;;20.60;52.20;;;;;;5067813;28;20340;-53
2023/10/23 00:38:54;;;;;;;9.85;6.75;;;20.60;52.20;;;;;;5070618;28;20355;-52
2023/10/23 00:41:20;;;;;;;8.15;6.05;;;20.60;52.20;;;;;;5055725;28;20036;-52
2023/10/23 00:43:46;;;;;;;9.57;6.63;;;20.60;52.20;;;;;;5073314;28;20051;-50
2023/10/23 00:46:19;;;;;;;8.77;6.40;;;20.60;52.20;;;;;;5074272;28;20458;-51
2023/10/23 00:48:46;;;;;;;7.95;6.30;;;20.60;52.20;;;;;;5053692;28;20040;-51
2023/10/23 00:51:14;;;;;;;8.77;5.85;;;20.60;52.20;;;;;;5072996;28;20036;-46
2023/10/23 00:53:42;;;;;;;7.60;5.93;;;20.60;52.10;;;;;;5056735;28;20344;-52
2023/10/23 00:56:09;;;;;;;8.82;6.30;;;20.60;52.10;;;;;;5073752;28;20043;-49
2023/10/23 00:58:40;;;;;;;8.18;6.20;;;20.50;52.00;;;;;;5073688;28;20459;-49
2023/10/23 01:01:10;;;;;;;8.38;6.05;;;20.60;52.10;;;;;;5077743;28;20024;-47
2023/10/23 01:03:35;;;;;;;8.55;5.85;;;20.60;52.10;;;;;;5073907;28;20067;-51
2023/10/23 01:06:02;;;;;;;9.40;5.95;;;20.50;52.00;;;;;;5073697;28;20059;-51
2023/10/23 01:08:28;;;;;;;7.53;5.35;;;20.50;52.00;;;;;;5073609;28;20020;-46
2023/10/23 01:10:55;;;;;;;8.13;5.60;;;20.50;52.00;;;;;;5073327;28;20043;-46
2023/10/23 01:13:21;;;;;;;7.93;5.80;;;20.50;52.00;;;;;;5073621;28;20994;-50
2023/10/23 01:15:47;;;;;;;7.47;5.70;;;20.50;51.90;;;;;;5064605;28;20032;-49
2023/10/23 01:18:13;;;;;;;7.22;5.32;;;20.50;51.90;;;;;;5055765;28;20063;-51
2023/10/23 01:20:40;;;;;;;6.15;5.03;;;20.50;51.90;;;;;;5070564;28;20020;-49
2023/10/23 01:23:07;;;;;;;6.43;4.97;;;20.50;51.90;;;;;;5056072;28;20040;-50
2023/10/23 01:25:33;;;;;;;6.07;4.43;;;20.50;51.80;;;;;;5051884;28;20410;-47
2023/10/23 01:28:00;;;;;;;5.95;4.60;;;20.50;52.40;;;;;;5078795;28;20059;-50
2023/10/23 01:30:26;;;;;;;6.40;4.85;;;20.50;51.90;;;;;;5068447;28;20118;-50
2023/10/23 01:32:52;;;;;;;6.15;4.88;;;20.50;51.80;;;;;;5077683;28;20052;-50
2023/10/23 01:35:19;;;;;;;6.13;4.28;;;20.50;51.80;;;;;;5054252;28;20115;-52
2023/10/23 01:37:45;;;;;;;7.97;5.22;;;20.50;51.80;;;;;;5072168;28;20401;-49
2023/10/23 01:40:11;;;;;;;7.43;4.82;;;20.50;51.80;;;;;;5079640;28;20025;-51
2023/10/23 01:42:39;;;;;;;6.35;4.80;;;20.50;51.80;;;;;;5093184;28;20030;-51
2023/10/23 01:45:06;;;;;;;5.60;4.35;;;20.50;51.80;;;;;;5096057;28;20050;-50
2023/10/23 01:47:32;;;;;;;6.25;4.03;;;20.50;51.80;;;;;;5094962;28;20115;-52
2023/10/23 01:49:58;;;;;;;4.80;3.90;;;20.50;51.70;;;;;;5073978;28;20126;-49
2023/10/23 01:52:24;;;;;;;7.00;4.53;;;20.50;51.70;;;;;;5071511;28;20035;-51
2023/10/23 01:54:52;;;;;;;4.63;4.03;;;20.40;51.60;;;;;;5075009;28;20056;-50
2023/10/23 01:57:18;;;;;;;6.03;3.85;;;20.50;51.60;;;;;;5086280;28;20038;-52
2023/10/23 01:59:44;;;;;;;4.88;3.58;;;20.50;51.60;;;;;;5076721;28;20028;-49
2023/10/23 02:02:11;;;;;;;4.88;3.53;;;20.50;51.60;;;;;;5076670;28;20085;-52
2023/10/23 02:04:39;;;;;;;5.75;3.92;;;20.50;51.60;;;;;;5095861;28;20062;-48
2023/10/23 02:07:05;;;;;;;5.03;3.63;;;20.40;51.50;;;;;;5086810;28;20036;-50
2023/10/23 02:09:31;;;;;;;4.03;3.25;;;20.40;51.50;;;;;;5087017;28;20093;-49
2023/10/23 02:11:57;;;;;;;5.68;3.72;;;20.40;51.50;;;;;;5084064;28;20032;-48
2023/10/23 02:14:23;;;;;;;5.60;3.35;;;20.40;51.50;;;;;;5074767;28;20047;-50
2023/10/23 02:16:49;;;;;;;5.55;3.38;;;20.40;51.50;;;;;;5075725;28;20024;-49
2023/10/23 02:19:15;;;;;;;4.65;3.58;;;20.40;51.50;;;;;;5071775;28;20409;-51
2023/10/23 02:21:49;;;;;;;5.05;3.72;;;20.40;51.50;;;;;;5072940;28;20400;-51
2023/10/23 02:24:15;;;;;;;4.07;3.23;;;20.40;51.50;;;;;;5071827;28;20131;-48
2023/10/23 02:26:41;;;;;;;4.63;3.63;;;20.40;51.50;;;;;;5071569;28;20320;-52
2023/10/23 02:29:07;;;;;;;4.03;3.08;;;20.40;51.50;;;;;;5075443;28;20028;-52
2023/10/23 02:31:33;;;;;;;4.70;3.35;;;20.40;51.50;;;;;;5079075;28;20051;-49
2023/10/23 02:33:59;;;;;;;4.40;3.50;;;20.40;51.50;;;;;;5073763;28;20102;-46
2023/10/23 02:36:26;;;;;;;6.22;3.63;;;20.40;51.50;;;;;;5071751;28;20431;-48
2023/10/23 02:38:52;;;;;;;4.82;3.60;;;20.40;51.50;;;;;;5071900;28;20349;-49
2023/10/23 02:41:17;;;;;;;4.45;3.05;;;20.40;51.50;;;;;;5076723;28;20024;-50
2023/10/23 02:43:43;;;;;;;5.53;3.80;;;20.40;51.50;;;;;;5073703;28;20039;-49
2023/10/23 02:46:10;;;;;;;4.07;3.22;;;20.40;51.50;;;;;;5067461;28;20020;-48
2023/10/23 02:48:37;;;;;;;4.43;3.55;;;20.30;51.50;;;;;;5067459;28;20442;-51
2023/10/23 02:51:03;;;;;;;4.63;3.58;;;20.40;51.60;;;;;;5051940;28;20028;-48
2023/10/23 02:53:30;;;;;;;5.70;3.90;;;20.40;51.60;;;;;;5074385;28;21362;-47
2023/10/23 02:55:56;;;;;;;5.18;3.38;;;20.40;51.60;;;;;;5071043;28;20032;-49
2023/10/23 02:58:21;;;;;;;4.38;3.08;;;20.30;51.50;;;;;;5071320;28;20036;-51
2023/10/23 03:00:47;;;;;;;5.13;3.22;;;20.40;51.60;;;;;;5070430;28;20343;-50
2023/10/23 03:03:13;;;;;;;4.00;3.05;;;20.30;51.60;;;;;;5056645;28;20419;-48
2023/10/23 03:05:40;;;;;;;3.85;2.70;;;20.30;51.60;;;;;;5071801;28;20053;-50
2023/10/23 03:08:06;;;;;;;4.35;3.13;;;20.30;51.60;;;;;;5069110;28;20025;-48
2023/10/23 03:10:33;;;;;;;4.10;3.17;;;20.40;51.70;;;;;;5072282;28;20423;-51
2023/10/23 03:12:59;;;;;;;5.47;3.50;;;20.30;51.70;;;;;;5051581;28;20024;-51
2023/10/23 03:15:24;;;;;;;4.28;3.13;;;20.30;51.70;;;;;;5058709;28;20044;-50
2023/10/23 03:17:53;;;;;;;5.15;3.38;;;20.30;51.70;;;;;;5069737;28;20062;-49
2023/10/23 03:20:19;;;;;;;4.43;2.97;;;20.30;51.70;;;;;;5071189;28;21395;-49
2023/10/23 03:22:45;;;;;;;3.55;2.92;;;20.30;51.70;;;;;;5070544;28;20043;-51
2023/10/23 03:25:11;;;;;;;4.00;3.15;;;20.30;51.80;;;;;;5070402;28;20063;-50
2023/10/23 03:27:37;;;;;;;3.80;3.10;;;20.30;51.80;;;;;;5072435;28;20020;-52
2023/10/23 03:30:04;;;;;;;4.25;3.00;;;20.30;51.80;;;;;;5077449;28;20040;-48
2023/10/23 03:32:30;;;;;;;3.10;2.65;;;20.30;51.80;;;;;;5076180;28;20102;-51
2023/10/23 03:34:57;;;;;;;4.28;2.97;;;20.30;51.80;;;;;;5071653;28;20052;-51
2023/10/23 03:37:24;;;;;;;4.55;3.45;;;20.30;51.80;;;;;;5070852;28;20021;-52
2023/10/23 03:39:49;;;;;;;3.80;2.72;;;20.30;51.80;;;;;;5076543;28;20016;-52
2023/10/23 03:42:16;;;;;;;3.60;2.80;;;20.30;51.80;;;;;;5058819;28;20047;-51
2023/10/23 03:44:42;;;;;;;3.30;2.63;;;20.30;51.80;;;;;;5083248;28;20459;-50
2023/10/23 03:47:08;;;;;;;3.70;2.67;;;20.30;51.80;;;;;;5074161;28;20375;-47
2023/10/23 03:49:34;;;;;;;3.72;2.70;;;20.30;51.90;;;;;;5086515;28;20108;-49
2023/10/23 03:52:00;;;;;;;4.88;2.50;;;20.30;51.80;;;;;;5085265;28;20039;-50
2023/10/23 03:54:26;;;;;;;3.53;2.50;;;20.30;51.80;;;;;;5064719;28;20359;-49
2023/10/23 03:56:51;;;;;;;2.63;2.08;;;20.30;51.80;;;;;;5073709;28;20165;-48
2023/10/23 03:59:17;;;;;;;3.05;2.55;;;20.30;51.80;;;;;;5085823;28;20130;-49
2023/10/23 04:01:43;;;;;;;4.13;3.03;;;20.30;51.90;;;;;;5094528;28;20063;-50
2023/10/23 04:04:10;;;;;;;2.95;2.30;;;20.30;51.90;;;;;;5092830;28;20119;-52
2023/10/23 04:06:39;;;;;;;2.65;2.25;;;20.30;51.90;;;;;;5090335;28;20070;-49
2023/10/23 04:09:05;;;;;;;3.90;2.80;;;20.30;51.90;;;;;;5070847;28;20033;-52
2023/10/23 04:11:30;;;;;;;4.28;2.80;;;20.30;51.90;;;;;;5056883;28;20031;-51
2023/10/23 04:13:56;;;;;;;3.67;2.85;;;20.30;51.90;;;;;;5069505;28;20036;-50
2023/10/23 04:16:22;;;;;;;2.83;2.25;;;20.30;52.00;;;;;;5074535;28;20058;-47
2023/10/23 04:18:48;;;;;;;4.20;2.63;;;20.30;52.00;;;;;;5071460;28;20025;-49
2023/10/23 04:21:13;;;;;;;3.78;2.70;;;20.30;52.00;;;;;;5076203;28;20074;-48
2023/10/23 04:23:40;;;;;;;3.70;2.47;;;20.30;52.00;;;;;;5074985;28;20051;-49
2023/10/23 04:26:07;;;;;;;3.83;2.50;;;20.30;52.00;;;;;;5074320;28;20020;-49
2023/10/23 04:28:33;;;;;;;2.88;2.30;;;20.30;52.00;;;;;;5092973;28;20028;-49
2023/10/23 04:30:59;;;;;;;3.42;2.38;;;20.30;52.10;;;;;;5075059;28;20029;-50
2023/10/23 04:33:25;;;;;;;3.67;2.53;;;20.30;52.10;;;;;;5076843;28;20432;-48
2023/10/23 04:35:52;;;;;;;3.70;2.47;;;20.20;52.00;;;;;;5075373;28;20025;-52
2023/10/23 04:38:18;;;;;;;3.50;2.42;;;20.30;52.10;;;;;;5076470;28;20044;-50
2023/10/23 04:40:44;;;;;;;2.30;2.10;;;20.30;52.20;;;;;;5072274;28;20366;-52
2023/10/23 04:43:13;;;;;;;2.70;2.20;;;20.20;52.10;;;;;;5069073;28;20033;-47
2023/10/23 04:45:40;;;;;;;2.65;2.13;;;20.20;52.10;;;;;;5074379;28;20028;-50
2023/10/23 04:48:06;;;;;;;5.38;2.50;;;20.30;52.20;;;;;;5073692;28;20028;-48
2023/10/23 04:50:37;;;;;;;2.53;2.05;;;20.20;52.20;;;;;;5071702;28;20020;-50
2023/10/23 04:53:03;;;;;;;2.40;1.98;;;20.20;52.20;;;;;;5075801;28;20044;-49
2023/10/23 04:55:38;;;;;;;2.25;2.03;;;20.20;52.20;;;;;;5073702;28;20051;-52
2023/10/23 04:58:05;;;;;;;2.90;2.17;;;20.20;52.20;;;;;;5072088;28;20044;-47
2023/10/23 05:00:34;;;;;;;2.65;2.13;;;20.20;52.20;;;;;;5069114;28;20341;-52
2023/10/23 05:03:00;;;;;;;2.15;1.80;;;20.20;52.20;;;;;;5077173;28;20062;-50
2023/10/23 05:05:26;;;;;;;2.53;1.88;;;20.20;52.30;;;;;;5075584;28;20110;-47
2023/10/23 05:07:52;;;;;;;2.13;1.83;;;20.20;52.30;;;;;;5071761;28;20033;-51
2023/10/23 05:10:18;;;;;;;2.00;1.80;;;20.20;52.30;;;;;;5070444;28;20031;-50
2023/10/23 05:12:45;;;;;;;2.30;1.98;;;20.20;52.30;;;;;;5073674;28;20049;-49
2023/10/23 05:15:11;;;;;;;3.33;2.25;;;20.20;52.40;;;;;;5080681;28;20041;-51
2023/10/23 05:17:37;;;;;;;2.65;1.90;;;20.20;52.40;;;;;;5070961;28;20138;-49
2023/10/23 05:20:04;;;;;;;3.00;2.00;;;20.20;52.40;;;;;;5073907;28;20119;-51
2023/10/23 05:22:30;;;;;;;2.25;1.90;;;20.20;52.40;;;;;;5076078;28;20452;-47
2023/10/23 05:24:55;;;;;;;2.35;2.00;;;20.20;52.50;;;;;;5073481;28;20032;-52
2023/10/23 05:27:21;;;;;;;2.38;1.75;;;20.20;52.50;;;;;;5080137;28;20163;-50
2023/10/23 05:29:47;;;;;;;2.10;1.80;;;20.20;52.50;;;;;;5087624;28;20335;-52
2023/10/23 05:32:13;;;;;;;2.60;1.65;;;20.20;52.50;;;;;;5077436;28;20024;-50
2023/10/23 05:34:39;;;;;;;2.22;1.52;;;20.20;52.50;;;;;;5074053;28;20062;-49
2023/10/23 05:37:04;;;;;;;2.78;1.50;;;20.20;52.50;;;;;;5072911;28;20396;-51
2023/10/23 05:39:31;;;;;;;2.53;1.88;;;20.20;52.50;;;;;;5089049;28;20057;-49
2023/10/23 05:41:57;;;;;;;1.92;1.50;;;20.20;52.60;;;;;;5096134;28;20125;-50
2023/10/23 05:44:22;;;;;;;2.85;1.60;;;20.20;52.60;;;;;;5092861;28;20153;-46
2023/10/23 05:46:48;;;;;;;2.03;1.58;;;20.20;52.60;;;;;;5096559;28;20077;-51
2023/10/23 05:49:14;;;;;;;2.25;1.80;;;20.20;52.60;;;;;;5087069;28;20032;-48
2023/10/23 05:51:40;;;;;;;2.08;1.73;;;20.20;52.60;;;;;;5076615;28;20118;-48
2023/10/23 05:54:08;;;;;;;2.05;1.40;;;20.20;52.60;;;;;;5061656;28;20066;-49
2023/10/23 05:56:34;;;;;;;1.75;1.50;;;20.20;52.60;;;;;;5079189;28;20052;-50
2023/10/23 05:58:59;;;;;;;1.50;1.40;;;20.20;52.60;;;;;;5085088;28;20118;-47
2023/10/23 06:01:25;;;;;;;1.88;1.60;;;20.20;52.60;;;;;;5077103;28;20024;-48
2023/10/23 06:03:52;;;;;;;1.83;1.60;;;20.20;52.60;;;;;;5070315;28;20385;-52
2023/10/23 06:06:18;;;;;;;2.03;1.40;;;20.20;53.30;;;;;;5076193;28;20106;-47
2023/10/23 06:08:44;;;;;;;2.28;1.50;;;20.20;52.60;;;;;;5071075;28;20147;-48
2023/10/23 06:11:11;;;;;;;2.30;1.50;;;20.20;52.60;;;;;;5072752;28;20036;-50
2023/10/23 06:13:38;;;;;;;2.33;1.70;;;20.20;52.60;;;;;;5076695;28;20140;-51
2023/10/23 06:16:05;;;;;;;1.73;1.50;;;20.20;52.70;;;;;;5079465;28;20043;-49
2023/10/23 06:18:32;;;;;;;1.90;1.40;;;20.20;52.70;;;;;;5071424;28;20032;-51
2023/10/23 06:21:03;;;;;;;1.98;1.60;;;20.20;52.70;;;;;;5074692;28;20033;-50
2023/10/23 06:23:33;;;;;;;1.75;1.42;;;20.20;52.70;;;;;;5071151;28;21670;-50
2023/10/23 06:25:59;;;;;;;1.75;1.13;;;20.20;52.70;;;;;;5071917;28;20044;-47
2023/10/23 06:28:28;;;;;;;3.15;1.80;;;20.20;52.70;;;;;;5080926;28;20192;-47
2023/10/23 06:30:54;;;;;;;2.35;1.45;;;20.20;52.70;;;;;;5081840;28;20039;-48
2023/10/23 06:33:20;;;;;;;2.40;1.70;;;20.20;52.70;;;;;;5073689;28;20052;-47
2023/10/23 06:35:46;;;;;;;4.90;1.63;;;20.20;52.60;;;;;;5077216;28;20066;-49
2023/10/23 06:38:12;;;;;;;2.55;1.70;;;20.20;52.60;;;;;;5075072;28;20039;-45
2023/10/23 06:40:37;;;;;;;3.03;1.77;;;20.20;52.60;;;;;;5068765;28;20021;-53
2023/10/23 06:43:03;;;;;;;3.00;2.33;;;20.20;52.60;;;;;;5076801;28;20039;-50
2023/10/23 06:45:29;;;;;;;3.95;2.10;;;20.10;52.60;;;;;;5079132;28;20024;-51
2023/10/23 06:47:55;;;;;;;3.47;2.55;;;20.10;52.60;;;;;;5071909;28;20090;-53
2023/10/23 06:50:20;;;;;;;3.33;2.60;;;20.20;52.70;;;;;;5072851;28;20485;-48
2023/10/23 06:52:46;;;;;;;3.30;2.67;;;20.20;52.90;;;;;;5070501;28;20028;-49
2023/10/23 06:55:12;;;;;;;3.20;2.67;;;20.10;52.80;;;;;;5068833;28;20048;-46
2023/10/23 06:57:38;;;;;;;3.50;2.80;;;20.20;52.90;;;;;;5079463;28;20445;-50
2023/10/23 07:00:06;;;;;;;4.35;3.10;;;20.20;52.90;;;;;;5074525;28;20125;-49
2023/10/23 07:02:32;;;;;;;3.38;2.70;;;20.20;52.90;;;;;;5070582;28;20066;-45
2023/10/23 07:04:58;;;;;;;4.07;2.92;;;20.20;52.90;;;;;;5052700;28;20135;-47
2023/10/23 07:07:24;;;;;;;3.75;3.33;;;20.20;52.90;;;;;;5074983;28;20098;-51
2023/10/23 07:09:53;;;;;;;3.85;3.03;;;20.20;52.90;;;;;;5069727;28;20086;-51
2023/10/23 07:12:19;;;;;;;3.45;3.05;;;20.20;52.90;;;;;;5069238;28;20033;-48
2023/10/23 07:14:45;;;;;;;3.50;3.08;;;20.20;52.90;;;;;;5084727;28;20356;-51
2023/10/23 07:17:11;;;;;;;3.83;3.25;;;20.20;52.90;;;;;;5071340;28;20058;-47
2023/10/23 07:19:36;;;;;;;4.28;3.05;;;20.20;53.50;;;;;;5082248;28;20116;-49
2023/10/23 07:22:03;;;;;;;4.15;3.13;;;20.20;52.90;;;;;;5085022;28;20028;-47
2023/10/23 07:24:29;;;;;;;4.45;3.67;;;20.20;53.00;;;;;;5092364;28;20032;-50
2023/10/23 07:26:55;;;;;;;4.63;3.10;;;20.20;53.00;;;;;;5079211;28;20064;-50
2023/10/23 07:29:21;;;;;;;5.60;4.30;;;20.20;53.00;;;;;;5078630;28;20031;-52
2023/10/23 07:31:46;;;;;;;4.68;4.15;;;20.20;53.00;;;;;;5094891;28;20042;-50
2023/10/23 07:34:12;;;;;;;4.60;3.70;;;20.20;53.00;;;;;;5080521;28;20063;-51
2023/10/23 07:36:39;;;;;;;4.47;3.80;;;20.20;52.90;;;;;;5077500;28;20059;-50
2023/10/23 07:39:05;;;;;;;4.70;4.13;;;20.20;52.90;;;;;;5071124;28;20033;-49
2023/10/23 07:41:31;;;;;;;4.85;3.97;;;20.20;52.90;;;;;;5074305;28;20026;-49
2023/10/23 07:43:57;;;;;;;4.32;3.78;;;20.20;52.80;;;;;;5075323;28;20051;-51
2023/10/23 07:46:23;;;;;;;5.93;3.63;;;20.20;52.80;;;;;;5073437;28;20062;-48
2023/10/23 07:48:48;;;;;;;5.55;4.40;;;20.20;52.80;;;;;;5073294;28;20346;-46
2023/10/23 07:51:15;;;;;;;5.35;4.53;;;20.20;52.70;;;;;;5074648;28;20039;-50
2023/10/23 07:53:41;;;;;;;5.57;4.75;;;20.20;52.70;;;;;;5075502;28;20300;-48
2023/10/23 07:56:06;;;;;;;5.50;4.50;;;20.20;52.70;;;;;;5078826;28;20024;-47
2023/10/23 07:58:33;;;;;;;5.05;4.43;;;20.20;52.70;;;;;;5075462;28;20036;-49
2023/10/23 08:01:12;;;;;;;6.00;4.53;;;20.20;52.60;;;;;;5072133;28;20311;-50
2023/10/23 08:03:38;;;;;;;6.50;4.85;;;20.20;52.60;;;;;;5076869;28;20047;-45
2023/10/23 08:06:07;;;;;;;5.40;4.75;;;20.20;52.60;;;;;;5075350;28;20431;-47
2023/10/23 08:08:35;;;;;;;5.70;5.05;;;20.20;52.60;;;;;;5074564;28;20028;-47
2023/10/23 08:11:06;;;;;;;7.38;5.30;;;20.20;52.60;;;;;;5073452;28;20106;-49
2023/10/23 08:13:33;;;;;;;6.25;5.28;;;20.20;52.60;;;;;;5078148;28;20044;-51
2023/10/23 08:15:59;;;;;;;6.45;5.78;;;20.20;52.60;;;;;;5075932;28;20427;-51
2023/10/23 08:18:25;;;;;;;6.03;5.40;;;20.20;53.20;;;;;;5072938;28;20070;-48
2023/10/23 08:20:50;;;;;;;6.38;5.55;;;20.20;52.70;;;;;;5074674;28;20033;-47
2023/10/23 08:23:16;;;;;;;6.95;6.22;;;20.20;52.60;;;;;;5077415;28;20035;-49
2023/10/23 08:25:48;;;;;;;7.22;6.53;;;20.20;52.60;;;;;;5080599;28;20024;-48
2023/10/23 08:28:14;;;;;;;7.53;6.70;;;20.20;52.60;;;;;;5084997;28;20312;-51
2023/10/23 08:30:41;;;;;;;6.78;6.07;;;20.20;53.20;;;;;;5086863;28;20028;-49
2023/10/23 08:33:07;;;;;;;9.18;7.03;;;20.20;52.60;;;;;;5087055;28;20128;-50
2023/10/23 08:35:33;;;;;;;6.78;5.82;;;20.20;52.60;;;;;;5085178;28;20355;-49
2023/10/23 08:37:58;;;;;;;7.38;6.30;;;20.20;52.60;;;;;;5087209;28;20028;-50
2023/10/23 08:40:24;;;;;;;7.68;6.72;;;20.20;52.60;;;;;;5086846;28;20482;-47
2023/10/23 08:42:51;;;;;;;7.13;6.43;;;20.20;52.50;;;;;;5086867;28;20051;-51
2023/10/23 08:45:17;;;;;;;6.95;6.25;;;20.20;52.50;;;;;;5088460;28;20035;-48
2023/10/23 08:47:43;;;;;;;7.25;6.10;;;20.20;52.50;;;;;;5088154;28;20024;-50
2023/10/23 08:50:12;;;;;;;7.13;6.32;;;20.20;52.50;;;;;;5087930;28;20032;-47
2023/10/23 08:52:45;;;;;;;7.20;6.35;;;20.20;52.40;;;;;;5088015;28;20032;-49
2023/10/23 08:55:14;;;;;;;7.65;6.80;;;20.20;52.40;;;;;;5086448;28;20036;-46
2023/10/23 08:57:47;;;;;;;7.20;6.45;;;20.20;52.40;;;;;;5086469;28;20024;-47
2023/10/23 09:00:13;;;;;;;7.80;6.68;;;20.20;52.40;;;;;;5081490;28;20023;-47
2023/10/23 09:02:39;;;;;;;7.22;6.43;;;20.20;52.40;;;;;;5086591;28;20328;-49
2023/10/23 09:05:05;;;;;;;7.45;6.65;;;20.20;52.40;;;;;;5086521;28;20028;-47
2023/10/23 09:07:32;;;;;;;7.20;6.40;;;20.20;52.30;;;;;;5083162;28;20455;-48
2023/10/23 09:10:03;;;;;;;8.15;6.45;;;20.20;52.30;;;;;;5087059;28;20439;-52
2023/10/23 09:12:33;;;;;;;8.43;7.22;;;20.20;52.30;;;;;;5087161;28;20032;-47
2023/10/23 09:15:20;;;;;;;8.75;7.40;;;20.20;52.30;;;;;;5085480;28;20069;-50
2023/10/23 09:17:49;;;;;;;7.75;6.38;;;20.20;52.30;;;;;;5078412;28;20020;-48
2023/10/23 09:20:23;;;;;;;7.80;7.00;;;20.20;52.30;;;;;;5083347;28;20451;-49
2023/10/23 09:22:54;;;;;;;8.18;7.07;;;20.20;52.30;;;;;;5087202;28;20479;-49
2023/10/23 09:25:22;;;;;;;8.88;7.38;;;20.20;52.30;;;;;;5086988;28;20435;-50
2023/10/23 09:27:49;;;;;;;8.90;7.18;;;20.20;52.30;;;;;;5087063;28;20066;-47
2023/10/23 09:30:21;;;;;;;8.98;7.90;;;20.20;52.40;;;;;;5087130;28;20028;-48
2023/10/23 09:32:51;;;;;;;10.70;8.55;;;20.20;52.40;;;;;;5082510;28;20032;-50
2023/10/23 09:35:18;;;;;;;10.05;7.90;;;20.20;52.40;;;;;;5084481;28;20446;-45
2023/10/23 09:37:44;;;;;;;10.23;8.77;;;20.20;52.40;;;;;;5087279;28;20035;-49
2023/10/23 09:40:13;;;;;;;9.95;8.95;;;20.30;52.50;;;;;;5086724;28;20024;-45
2023/10/23 09:42:40;;;;;;;9.32;8.18;;;20.30;52.50;;;;;;5085946;28;20027;-48
2023/10/23 09:45:07;;;;;;;10.85;8.48;;;20.30;52.50;;;;;;5084472;28;20035;-50
2023/10/23 09:47:35;;;;;;;10.23;8.95;;;20.30;52.50;;;;;;5089745;28;20035;-46
2023/10/23 09:50:03;;;;;;;10.18;9.00;;;20.30;52.50;;;;;;5085666;28;20028;-48
2023/10/23 09:52:32;;;;;;;11.20;9.43;;;20.30;52.50;;;;;;5088714;28;20097;-48
2023/10/23 09:55:08;;;;;;;10.30;8.70;;;20.30;52.50;;;;;;5081594;28;20043;-49
2023/10/23 09:57:38;;;;;;;10.45;9.35;;;20.30;52.60;;;;;;5087076;28;20402;-47
2023/10/23 10:00:15;;;;;;;11.80;9.68;;;20.30;52.50;;;;;;5084866;28;20035;-49
2023/10/23 10:02:47;;;;;;;11.35;9.77;;;20.30;52.60;;;;;;5085120;28;20403;-47
2023/10/23 10:05:21;;;;;;;13.60;10.80;;;20.30;52.60;;;;;;5086105;28;20100;-49
2023/10/23 10:08:03;;;;;;;11.52;10.32;;;20.30;52.60;;;;;;5083306;28;20091;-47
2023/10/23 10:10:30;;;;;;;12.32;10.20;;;20.30;52.60;;;;;;5065612;28;20052;-50
2023/10/23 10:12:56;;;;;;;11.13;9.95;;;20.30;52.60;;;;;;5085716;28;20052;-50
2023/10/23 10:15:23;;;;;;;10.80;9.65;;;20.30;52.60;;;;;;5081163;28;20122;-49
2023/10/23 10:17:50;;;;;;;11.88;9.90;;;20.30;52.60;;;;;;5077990;28;20459;-47
2023/10/23 10:20:21;;;;;;;12.60;11.15;;;20.30;52.60;;;;;;5087635;28;20126;-50
2023/10/23 10:22:59;;;;;;;12.52;10.35;;;20.30;52.60;;;;;;5085282;28;20083;-47
2023/10/23 10:25:27;;;;;;;11.50;10.30;;;20.40;52.70;;;;;;5086127;28;20035;-46
2023/10/23 10:27:57;;;;;;;12.38;10.38;;;20.40;52.60;;;;;;5082778;28;20048;-48
2023/10/23 10:30:40;;;;;;;11.88;10.07;;;20.40;52.60;;;;;;5085308;28;20100;-50
2023/10/23 10:33:14;;;;;;;10.90;9.82;;;20.40;52.60;;;;;;5082718;28;20040;-47
2023/10/23 10:35:46;;;;;;;11.65;10.30;;;20.40;52.60;;;;;;5079447;28;20423;-46
2023/10/23 10:38:12;;;;;;;12.68;10.88;;;20.40;52.60;;;;;;5083083;28;20455;-50
2023/10/23 10:41:01;;;;;;;12.93;10.82;;;20.40;52.60;;;;;;5081839;28;20447;-46
2023/10/23 10:43:38;;;;;;;11.80;10.20;;;20.40;52.50;;;;;;5084318;28;20206;-47
2023/10/23 10:46:15;;;;;;;14.88;11.60;;;20.40;52.50;;;;;;5085955;28;20028;-50
2023/10/23 10:48:43;;;;;;;14.35;12.50;;;20.40;52.60;;;;;;5074276;28;20032;-47
2023/10/23 10:51:11;;;;;;;14.10;12.60;;;20.50;52.80;;;;;;5070990;28;20029;-47
2023/10/23 10:53:40;;;;;;;14.00;12.38;;;20.40;52.70;;;;;;5073146;28;20029;-47
2023/10/23 10:56:10;;;;;;;13.13;11.55;;;20.40;52.70;;;;;;5074705;28;20379;-47
2023/10/23 10:58:43;;;;;;;16.45;12.20;;;20.50;53.40;;;;;;5092215;28;20063;-47
2023/10/23 11:01:09;;;;;;;12.80;11.10;;;20.50;52.80;;;;;;5075929;28;20025;-46
2023/10/23 11:03:36;;;;;;;13.10;10.43;;;20.50;52.80;;;;;;5069866;28;20074;-48
2023/10/23 11:06:06;;;;;;;11.43;10.13;;;20.50;52.80;;;;;;5089045;28;20115;-48
2023/10/23 11:08:34;;;;;;;11.90;10.45;;;20.50;52.80;;;;;;5079384;28;20033;-49
2023/10/23 11:11:06;;;;;;;12.55;10.60;;;20.50;52.70;;;;;;5084682;28;20097;-51
2023/10/23 11:13:34;;;;;;;10.63;9.52;;;20.50;52.70;;;;;;5083444;28;20020;-51
2023/10/23 11:16:01;;;;;;;11.27;9.98;;;20.50;52.70;;;;;;5083146;28;20032;-46
2023/10/23 11:18:30;;;;;;;11.88;10.40;;;20.50;53.30;;;;;;5074967;28;20058;-50
2023/10/23 11:20:58;;;;;;;11.48;10.27;;;20.50;52.60;;;;;;5073326;28;20132;-48
2023/10/23 11:23:24;;;;;;;11.05;9.52;;;20.50;52.60;;;;;;5084096;28;20035;-49
2023/10/23 11:25:50;;;;;;;11.85;10.25;;;20.50;52.60;;;;;;5084747;28;20028;-50
2023/10/23 11:28:17;;;;;;;12.70;10.18;;;20.50;52.60;;;;;;5085847;28;20030;-47
2023/10/23 11:30:54;;;;;;;12.75;11.15;;;20.50;52.60;;;;;;5078726;28;20020;-49
2023/10/23 11:33:20;;;;;;;11.70;10.32;;;20.50;52.60;;;;;;5072492;28;20051;-50
2023/10/23 11:35:47;;;;;;;12.15;10.52;;;20.50;52.50;;;;;;5075741;28;20052;-51
2023/10/23 11:38:21;;;;;;;13.10;11.07;;;20.60;52.60;;;;;;5075252;28;20028;-51
2023/10/23 11:40:47;;;;;;;13.40;11.35;;;20.60;52.60;;;;;;5068529;28;20039;-50
2023/10/23 11:43:15;;;;;;;12.90;11.35;;;20.60;52.60;;;;;;5069129;28;20328;-50
2023/10/23 11:45:43;;;;;;;15.15;13.45;;;20.60;52.80;;;;;;5073878;28;20047;-47
2023/10/23 11:48:12;;;;;;;20.98;18.75;;;20.60;52.90;;;;;;5072806;28;20036;-46
2023/10/23 11:50:39;;;;;;;24.80;22.13;;;20.70;53.10;;;;;;5069536;28;20351;-45
2023/10/23 11:53:06;;;;;;;25.15;22.52;;;20.70;53.30;;;;;;5068846;28;20116;-50
2023/10/23 11:55:33;;;;;;;24.70;21.70;;;20.70;53.40;;;;;;5068488;28;20044;-46
2023/10/23 11:57:59;;;;;;;23.50;20.83;;;20.70;53.40;;;;;;5069982;28;20502;-47
2023/10/23 12:00:25;;;;;;;23.90;19.98;;;20.70;53.30;;;;;;5067437;28;20041;-46
2023/10/23 12:02:51;;;;;;;19.95;17.27;;;20.70;53.30;;;;;;5068575;28;20078;-46
2023/10/23 12:05:21;;;;;;;21.55;17.17;;;20.70;53.20;;;;;;5069065;28;20024;-46
2023/10/23 12:07:49;;;;;;;18.40;16.30;;;20.70;53.20;;;;;;5070951;28;20028;-46
2023/10/23 12:10:16;;;;;;;16.85;15.00;;;20.70;53.10;;;;;;5068767;28;20028;-46
2023/10/23 12:12:43;;;;;;;17.08;14.30;;;20.70;53.10;;;;;;5054527;28;20081;-52
2023/10/23 12:15:12;;;;;;;16.40;13.35;;;20.70;53.00;;;;;;5071293;28;20040;-50
2023/10/23 12:17:39;;;;;;;15.23;13.60;;;20.70;53.00;;;;;;5074830;28;20081;-48
2023/10/23 12:20:09;;;;;;;15.38;12.60;;;20.70;52.90;;;;;;5076840;28;20139;-52
2023/10/23 12:22:46;;;;;;;16.65;12.52;;;20.70;52.90;;;;;;5078557;28;20036;-48
2023/10/23 12:25:13;;;;;;;13.77;11.95;;;20.70;52.90;;;;;;5075358;28;20146;-47
2023/10/23 12:27:41;;;;;;;13.63;11.65;;;20.70;52.80;;;;;;5079510;28;20078;-49
2023/10/23 12:30:08;;;;;;;13.23;11.25;;;20.70;52.80;;;;;;5075031;28;20111;-47
2023/10/23 12:32:34;;;;;;;13.27;10.48;;;20.70;52.70;;;;;;5078170;28;20039;-50
2023/10/23 12:35:03;;;;;;;12.60;10.57;;;20.70;52.70;;;;;;5076624;28;20044;-48
2023/10/23 12:37:30;;;;;;;13.15;10.50;;;20.80;52.70;;;;;;5079979;28;20058;-49
2023/10/23 12:39:58;;;;;;;13.48;10.50;;;20.70;52.60;;;;;;5081045;28;20031;-46
2023/10/23 12:42:24;;;;;;;12.30;9.48;;;20.80;52.60;;;;;;5081270;28;20021;-48
2023/10/23 12:44:50;;;;;;;13.15;9.48;;;20.70;52.60;;;;;;5082745;28;20024;-47